Time;durP1;ratioP1;P1;durP2;ratioP2;P2;SDS_P1;SDS_P2;PMS_P1;PMS_P2;Temp;Humidity;BMP_temperature;BMP_pressure;BME280_temperature;BME280_humidity;BME280_pressure;Samples;Min_cycle;Max_cycle;Signal;HPM_P1;HPM_P2
2023/07/30 00:02:09;;;;;;;2.00;1.80;;;;;;;17.05;90.18;97552.03;5030355;28;20970;-83
2023/07/30 00:04:37;;;;;;;1.80;1.70;;;;;;;17.08;90.63;97548.78;5028647;28;20499;-84
2023/07/30 00:07:04;;;;;;;1.67;1.40;;;;;;;17.02;90.58;97522.47;5031125;28;20465;-83
2023/07/30 00:09:31;;;;;;;1.60;1.50;;;;;;;17.26;89.73;97529.28;5031169;28;20514;-84
2023/07/30 00:11:58;;;;;;;1.40;1.30;;;;;;;17.26;89.23;97518.34;5030884;28;20463;-84
2023/07/30 00:14:24;;;;;;;1.50;1.40;;;;;;;17.22;89.43;97516.41;5030474;28;20979;-83
2023/07/30 00:16:51;;;;;;;1.93;1.37;;;;;;;17.23;89.43;97529.81;5029523;28;20880;-85
2023/07/30 00:19:18;;;;;;;1.30;1.20;;;;;;;17.13;89.57;97529.72;5029569;28;20460;-84
2023/07/30 00:21:46;;;;;;;1.83;1.20;;;;;;;17.29;90.35;97527.94;5028685;28;20552;-84
2023/07/30 00:24:13;;;;;;;1.80;1.70;;;;;;;17.30;89.90;97519.50;5030260;28;20575;-84
2023/07/30 00:26:40;;;;;;;3.60;1.70;;;;;;;17.36;89.20;97529.41;5029019;28;20463;-84
2023/07/30 00:29:07;;;;;;;1.40;1.30;;;;;;;17.40;89.17;97552.44;5029733;28;20456;-86
2023/07/30 00:31:34;;;;;;;2.03;1.67;;;;;;;17.19;89.32;97572.44;5029515;28;20539;-84
2023/07/30 00:34:00;;;;;;;1.50;1.40;;;;;;;17.16;88.47;97572.97;5028590;28;20575;-84
2023/07/30 00:36:27;;;;;;;1.90;1.40;;;;;;;17.19;88.13;97566.97;5028422;28;20459;-84
2023/07/30 00:38:56;;;;;;;1.37;1.27;;;;;;;17.30;87.32;97565.16;5028247;28;20523;-84
2023/07/30 00:41:22;;;;;;;1.40;1.13;;;;;;;17.32;85.94;97568.47;5029500;28;20480;-84
2023/07/30 00:43:49;;;;;;;1.27;1.17;;;;;;;17.38;84.58;97561.97;5028477;28;20511;-84
2023/07/30 00:46:17;;;;;;;1.30;1.20;;;;;;;17.22;86.36;97560.16;5028631;28;20476;-85
2023/07/30 00:48:44;;;;;;;1.50;1.20;;;;;;;17.08;86.34;97581.59;5028736;28;20462;-83
2023/07/30 00:51:14;;;;;;;1.40;1.30;;;;;;;17.24;83.78;97582.59;5030044;28;20456;-84
2023/07/30 00:53:41;;;;;;;1.23;1.13;;;;;;;17.29;84.96;97582.66;5027293;28;20570;-84
2023/07/30 00:56:09;;;;;;;1.20;1.10;;;;;;;17.32;84.63;97582.97;5030638;28;20495;-84
2023/07/30 00:58:36;;;;;;;1.60;1.30;;;;;;;17.32;83.97;97571.22;5033954;28;20460;-83
2023/07/30 01:01:03;;;;;;;1.40;1.20;;;;;;;17.40;84.17;97579.78;5040348;28;20468;-85
2023/07/30 01:03:30;;;;;;;2.30;1.40;;;;;;;17.62;83.52;97581.63;5045093;28;20468;-83
2023/07/30 01:05:57;;;;;;;1.90;1.20;;;;;;;17.73;83.26;97588.91;5039590;28;20462;-85
2023/07/30 01:08:24;;;;;;;1.50;1.20;;;;;;;17.73;83.75;97583.44;5031553;28;20460;-84
2023/07/30 01:10:51;;;;;;;1.67;1.33;;;;;;;17.67;83.62;97579.00;5032170;28;20445;-85
2023/07/30 01:13:19;;;;;;;1.70;1.60;;;;;;;17.66;84.63;97585.56;5032718;28;20995;-84
2023/07/30 01:15:46;;;;;;;1.30;1.20;;;;;;;17.83;84.39;97599.97;5035410;28;20456;-83
2023/07/30 01:18:13;;;;;;;1.60;1.50;;;;;;;17.62;84.52;97585.22;5034353;28;20478;-84
2023/07/30 01:20:40;;;;;;;1.73;1.50;;;;;;;17.92;83.58;97597.56;5032359;28;20452;-85
2023/07/30 01:23:09;;;;;;;1.87;1.43;;;;;;;17.73;84.02;97597.13;5031873;28;20526;-84
2023/07/30 01:25:37;;;;;;;1.87;1.53;;;;;;;17.79;83.98;97587.88;5030490;28;20874;-84
2023/07/30 01:28:06;;;;;;;1.60;1.40;;;;;;;17.86;85.02;97593.16;5031104;28;20468;-83
2023/07/30 01:30:36;;;;;;;1.73;1.63;;;;;;;17.83;84.46;97599.13;5032137;28;20464;-84
2023/07/30 01:33:04;;;;;;;1.73;1.63;;;;;;;17.91;84.45;97602.22;5027318;28;20493;-83
2023/07/30 01:35:31;;;;;;;1.63;1.53;;;;;;;17.78;85.06;97599.91;5032455;28;20553;-83
2023/07/30 01:38:02;;;;;;;1.90;1.80;;;;;;;17.64;86.95;97607.66;5029610;28;20471;-83
2023/07/30 01:40:30;;;;;;;2.50;2.00;;;;;;;17.77;85.48;97606.47;5030940;28;20543;-84
2023/07/30 01:42:56;;;;;;;2.43;2.23;;;;;;;18.08;85.17;97613.06;5029115;28;20561;-84
2023/07/30 01:45:23;;;;;;;1.90;1.70;;;;;;;18.21;85.47;97620.00;5031393;28;20444;-84
2023/07/30 01:47:50;;;;;;;1.80;1.70;;;;;;;18.50;84.72;97609.56;5030373;28;20480;-85
2023/07/30 01:50:17;;;;;;;2.20;2.00;;;;;;;18.56;84.91;97608.47;5031963;28;20459;-85
2023/07/30 01:52:44;;;;;;;2.97;2.20;;;;;;;18.21;85.63;97612.59;5031598;28;20511;-85
2023/07/30 01:55:11;;;;;;;2.00;1.90;;;;;;;18.07;86.46;97612.22;5031635;28;20459;-84
2023/07/30 01:57:39;;;;;;;2.13;2.03;;;;;;;17.77;87.21;97606.47;5027538;28;21002;-83
2023/07/30 02:00:07;;;;;;;2.10;2.00;;;;;;;17.72;87.36;97609.16;5025483;28;20486;-84
2023/07/30 02:02:35;;;;;;;3.27;2.70;;;;;;;17.71;87.48;97618.44;5030126;28;20593;-86
2023/07/30 02:05:02;;;;;;;2.40;2.27;;;;;;;17.90;87.04;97614.25;5030679;28;20487;-85
2023/07/30 02:07:29;;;;;;;3.00;2.80;;;;;;;17.74;88.17;97612.47;5032141;28;20809;-84
2023/07/30 02:09:56;;;;;;;2.60;2.40;;;;;;;17.68;87.65;97606.09;5030133;28;20452;-84
2023/07/30 02:12:23;;;;;;;2.67;2.47;;;;;;;17.81;87.11;97615.00;5030117;28;21087;-84
2023/07/30 02:14:51;;;;;;;2.50;2.20;;;;;;;17.73;86.84;97606.16;5030113;28;21067;-84
2023/07/30 02:17:18;;;;;;;2.90;2.57;;;;;;;17.52;88.64;97604.28;5029433;28;20507;-84
2023/07/30 02:19:45;;;;;;;2.10;2.00;;;;;;;17.59;89.04;97599.41;5031060;28;20502;-84
2023/07/30 02:22:12;;;;;;;3.00;2.80;;;;;;;17.68;88.35;97602.53;5028937;28;21032;-84
2023/07/30 02:24:39;;;;;;;3.07;2.77;;;;;;;17.64;87.68;97598.63;5029770;28;20865;-84
2023/07/30 02:27:06;;;;;;;2.97;2.67;;;;;;;17.87;86.79;97603.00;5030076;28;20544;-84
2023/07/30 02:29:33;;;;;;;4.07;2.60;;;;;;;17.67;87.06;97611.84;5030191;28;21026;-84
2023/07/30 02:32:01;;;;;;;2.80;2.60;;;;;;;17.78;86.82;97602.66;5028610;28;20832;-85
2023/07/30 02:34:27;;;;;;;2.37;2.20;;;;;;;17.67;87.37;97600.88;5028199;28;20460;-84
2023/07/30 02:36:54;;;;;;;2.03;1.93;;;;;;;17.84;86.55;97609.84;5029787;28;20963;-84
2023/07/30 02:39:21;;;;;;;2.43;2.23;;;;;;;17.85;86.53;97607.91;5030028;28;20559;-83
2023/07/30 02:41:48;;;;;;;2.27;2.07;;;;;;;17.90;86.41;97610.69;5029661;28;20456;-83
2023/07/30 02:44:15;;;;;;;2.20;2.00;;;;;;;17.75;86.86;97609.47;5027405;28;20460;-84
2023/07/30 02:46:41;;;;;;;2.10;2.00;;;;;;;17.75;87.22;97614.13;5029896;28;20443;-84
2023/07/30 02:49:09;;;;;;;2.43;2.23;;;;;;;17.81;87.23;97623.22;5031100;28;20502;-84
2023/07/30 02:51:36;;;;;;;3.13;2.37;;;;;;;17.84;87.15;97623.53;5028234;28;20945;-84
2023/07/30 02:54:05;;;;;;;2.97;2.70;;;;;;;17.71;87.26;97615.72;5027408;28;20793;-84
2023/07/30 02:56:32;;;;;;;2.63;2.43;;;;;;;17.58;87.64;97630.59;5029360;28;20864;-84
2023/07/30 02:59:00;;;;;;;2.70;2.13;;;;;;;17.82;87.54;97622.13;5030168;28;21050;-83
2023/07/30 03:01:26;;;;;;;2.37;2.27;;;;;;;17.56;88.99;97620.97;5030457;28;20448;-83
2023/07/30 03:03:53;;;;;;;2.50;2.30;;;;;;;17.57;89.39;97623.47;5028091;28;20535;-83
2023/07/30 03:06:22;;;;;;;2.90;2.70;;;;;;;17.40;90.12;97631.78;5029191;28;20471;-83
2023/07/30 03:08:49;;;;;;;2.90;2.70;;;;;;;17.57;89.45;97625.38;5028993;28;20452;-83
2023/07/30 03:11:15;;;;;;;4.83;2.50;;;;;;;17.58;89.86;97635.25;5030137;28;20487;-83
2023/07/30 03:13:42;;;;;;;2.60;2.40;;;;;;;17.59;89.27;97618.56;5028910;28;20571;-83
2023/07/30 03:16:09;;;;;;;2.60;2.40;;;;;;;17.75;88.19;97630.53;5029294;28;20876;-83
2023/07/30 03:18:36;;;;;;;2.80;2.60;;;;;;;17.75;88.07;97630.53;5029750;28;20467;-83
2023/07/30 03:21:03;;;;;;;2.70;2.50;;;;;;;17.83;88.37;97616.41;5029956;28;20487;-84
2023/07/30 03:23:31;;;;;;;3.23;2.27;;;;;;;17.78;88.41;97619.06;5028247;28;20538;-83
2023/07/30 03:25:59;;;;;;;2.60;2.40;;;;;;;17.82;87.94;97620.22;5026040;28;20456;-83
2023/07/30 03:28:26;;;;;;;2.67;2.47;;;;;;;18.00;86.90;97622.56;5029501;28;20464;-83
2023/07/30 03:30:53;;;;;;;2.70;2.50;;;;;;;17.95;87.40;97625.25;5030263;28;20491;-83
2023/07/30 03:33:21;;;;;;;2.23;2.03;;;;;;;17.87;87.82;97625.72;5030012;28;20559;-83
2023/07/30 03:35:48;;;;;;;2.53;2.33;;;;;;;17.73;88.77;97619.03;5030604;28;20551;-83
2023/07/30 03:38:15;;;;;;;2.63;2.43;;;;;;;17.99;88.12;97631.88;5028290;28;20488;-83
2023/07/30 03:40:43;;;;;;;2.60;2.40;;;;;;;17.76;89.13;97621.25;5031520;28;20504;-83
2023/07/30 03:43:10;;;;;;;2.50;2.40;;;;;;;18.10;88.20;97628.16;5027690;28;21043;-83
2023/07/30 03:45:37;;;;;;;3.30;3.00;;;;;;;17.98;87.55;97622.00;5032291;28;20455;-84
2023/07/30 03:48:04;;;;;;;2.60;2.40;;;;;;;17.99;87.35;97637.34;5035387;28;20480;-84
2023/07/30 03:50:31;;;;;;;2.97;2.77;;;;;;;18.08;86.42;97645.94;5043501;28;20467;-83
2023/07/30 03:52:58;;;;;;;4.27;2.70;;;;;;;18.01;87.01;97643.38;5037661;28;20539;-84
2023/07/30 03:55:24;;;;;;;3.40;3.17;;;;;;;18.26;86.05;97648.25;5032571;28;21254;-83
2023/07/30 03:57:53;;;;;;;3.70;2.57;;;;;;;18.29;85.70;97649.66;5030849;28;20459;-83
2023/07/30 04:00:20;;;;;;;2.70;2.50;;;;;;;18.20;85.92;97632.88;5028281;28;20464;-83
2023/07/30 04:02:46;;;;;;;3.00;2.70;;;;;;;18.25;86.05;97657.56;5026726;28;20479;-83
2023/07/30 04:05:14;;;;;;;2.77;2.57;;;;;;;18.30;86.29;97654.06;5029536;28;20598;-84
2023/07/30 04:07:40;;;;;;;2.83;2.63;;;;;;;18.21;86.10;97655.59;5030186;28;20582;-83
2023/07/30 04:10:08;;;;;;;3.23;3.03;;;;;;;18.35;85.73;97662.31;5028601;28;20452;-83
2023/07/30 04:12:35;;;;;;;3.20;2.90;;;;;;;18.24;86.09;97657.81;5023290;28;20587;-84
2023/07/30 04:15:04;;;;;;;4.70;2.80;;;;;;;18.28;86.15;97654.31;5029137;28;20820;-84
2023/07/30 04:17:31;;;;;;;3.40;3.10;;;;;;;18.05;86.85;97636.31;5026588;28;20452;-84
2023/07/30 04:19:58;;;;;;;3.93;3.60;;;;;;;18.05;87.35;97651.91;5027943;28;21500;-84
2023/07/30 04:22:25;;;;;;;4.03;3.13;;;;;;;18.12;86.60;97650.63;5026723;28;20574;-84
2023/07/30 04:24:52;;;;;;;3.20;3.00;;;;;;;17.90;87.93;97652.59;5030145;28;20477;-84
2023/07/30 04:27:19;;;;;;;4.40;4.00;;;;;;;17.79;88.63;97668.09;5028869;28;20464;-84
2023/07/30 04:29:45;;;;;;;3.97;3.67;;;;;;;17.78;88.94;97662.88;5028042;28;20871;-84
2023/07/30 04:32:13;;;;;;;3.10;2.90;;;;;;;17.89;88.63;97661.88;5027125;28;20530;-84
2023/07/30 04:34:40;;;;;;;3.10;2.90;;;;;;;17.88;88.53;97668.44;5027343;28;20491;-84
2023/07/30 04:37:07;;;;;;;3.23;2.90;;;;;;;17.98;88.56;97676.75;5027256;28;20801;-84
2023/07/30 04:39:34;;;;;;;3.70;3.40;;;;;;;17.64;89.82;97678.00;5026317;28;20546;-84
2023/07/30 04:42:01;;;;;;;4.70;3.60;;;;;;;17.72;90.30;97680.31;5027264;28;20476;-84
2023/07/30 04:44:28;;;;;;;3.60;3.30;;;;;;;17.58;90.90;97689.97;5027072;28;20487;-84
2023/07/30 04:46:55;;;;;;;4.90;4.40;;;;;;;17.51;91.65;97689.38;5028466;28;20473;-85
2023/07/30 04:49:23;;;;;;;3.90;3.60;;;;;;;17.68;91.54;97684.66;5023594;28;20534;-84
2023/07/30 04:51:50;;;;;;;4.57;4.17;;;;;;;17.67;91.40;97686.56;5027351;28;20861;-84
2023/07/30 04:54:17;;;;;;;4.57;4.27;;;;;;;17.68;91.50;97679.19;5024005;28;20522;-85
2023/07/30 04:56:43;;;;;;;4.00;3.70;;;;;;;17.68;90.78;97679.19;5025199;28;20510;-85
2023/07/30 04:59:10;;;;;;;4.47;3.90;;;;;;;17.79;91.38;97691.91;5029788;28;20444;-85
2023/07/30 05:01:37;;;;;;;4.00;3.70;;;;;;;17.49;91.64;97700.56;5028029;28;20472;-84
2023/07/30 05:04:04;;;;;;;6.23;3.93;;;;;;;17.66;91.17;97704.06;5024472;28;20573;-84
2023/07/30 05:06:32;;;;;;;4.37;4.03;;;;;;;17.72;90.64;97703.06;5027686;28;20943;-84
2023/07/30 05:08:59;;;;;;;4.80;4.40;;;;;;;17.66;91.40;97714.19;5027178;28;20914;-84
2023/07/30 05:11:26;;;;;;;4.60;4.30;;;;;;;17.58;91.57;97711.88;5025840;28;20664;-84
2023/07/30 05:13:53;;;;;;;4.67;4.27;;;;;;;17.60;91.50;97709.69;5022895;28;20468;-84
2023/07/30 05:16:20;;;;;;;4.80;3.83;;;;;;;17.54;91.54;97706.09;5026599;28;20462;-84
2023/07/30 05:18:46;;;;;;;3.77;3.47;;;;;;;17.54;91.35;97713.47;5025335;28;21156;-84
2023/07/30 05:21:14;;;;;;;3.23;3.03;;;;;;;17.32;91.88;97718.94;5027055;28;20801;-84
2023/07/30 05:23:42;;;;;;;3.07;2.77;;;;;;;17.30;92.31;97727.38;5024363;28;20577;-84
2023/07/30 05:26:09;;;;;;;3.27;3.03;;;;;;;17.35;92.28;97719.25;5026162;28;20463;-84
2023/07/30 05:28:35;;;;;;;4.00;3.30;;;;;;;17.19;92.84;97719.31;5023901;28;20452;-84
2023/07/30 05:31:02;;;;;;;3.23;2.93;;;;;;;17.23;92.79;97721.25;5026329;28;20452;-83
2023/07/30 05:33:29;;;;;;;3.43;2.70;;;;;;;17.17;92.91;97719.56;5027562;28;20460;-84
2023/07/30 05:35:56;;;;;;;3.33;3.00;;;;;;;17.21;92.53;97717.97;5028360;28;20531;-83
2023/07/30 05:38:22;;;;;;;2.97;2.77;;;;;;;17.16;92.66;97708.88;5028603;28;20456;-84
2023/07/30 05:40:50;;;;;;;3.10;2.80;;;;;;;17.19;92.68;97703.72;5027308;28;20448;-84
2023/07/30 05:43:18;;;;;;;2.77;2.57;;;;;;;17.30;92.05;97700.03;5024197;28;20492;-85
2023/07/30 05:45:44;;;;;;;3.83;3.00;;;;;;;17.34;91.56;97698.44;5028567;28;20448;-84
2023/07/30 05:48:11;;;;;;;2.63;2.43;;;;;;;17.21;91.72;97698.00;5027171;28;20712;-84
2023/07/30 05:50:38;;;;;;;2.77;2.57;;;;;;;17.16;91.13;97689.72;5026886;28;20538;-83
2023/07/30 05:53:05;;;;;;;2.40;2.20;;;;;;;17.10;90.84;97694.28;5026931;28;20472;-84
2023/07/30 05:55:31;;;;;;;1.90;1.80;;;;;;;17.02;90.43;97697.47;5028104;28;20440;-83
2023/07/30 05:58:00;;;;;;;2.07;1.97;;;;;;;17.11;91.57;97707.72;5027830;28;20474;-84
2023/07/30 06:00:26;;;;;;;2.37;2.17;;;;;;;17.23;91.64;97713.06;5026742;28;20484;-84
2023/07/30 06:02:53;;;;;;;2.27;2.07;;;;;;;17.23;90.70;97717.69;5026657;28;21284;-84
2023/07/30 06:05:20;;;;;;;2.10;1.93;;;;;;;17.45;90.08;97719.41;5026283;28;20471;-84
2023/07/30 06:07:47;;;;;;;1.87;1.50;;;;;;;17.45;89.11;97716.66;5029528;28;20444;-83
2023/07/30 06:10:14;;;;;;;2.10;1.90;;;;;;;17.55;89.25;97712.38;5028374;28;20506;-84
2023/07/30 06:12:41;;;;;;;2.50;2.10;;;;;;;17.55;89.04;97701.44;5027745;28;20563;-83
2023/07/30 06:15:10;;;;;;;2.00;1.90;;;;;;;17.50;88.21;97694.00;5026693;28;20526;-83
2023/07/30 06:17:37;;;;;;;2.17;1.80;;;;;;;17.49;89.36;97697.81;5029331;28;20476;-84
2023/07/30 06:20:05;;;;;;;3.50;2.07;;;;;;;17.53;88.98;97703.63;5026443;28;21256;-83
2023/07/30 06:22:31;;;;;;;1.83;1.73;;;;;;;17.65;89.63;97701.59;5026994;28;20472;-84
2023/07/30 06:24:58;;;;;;;1.60;1.50;;;;;;;17.59;87.60;97713.53;5027336;28;20515;-84
2023/07/30 06:27:26;;;;;;;1.40;1.30;;;;;;;17.60;87.93;97718.75;5029770;28;20487;-83
2023/07/30 06:29:52;;;;;;;1.90;1.80;;;;;;;17.90;87.35;97720.22;5029035;28;20523;-83
2023/07/30 06:32:20;;;;;;;1.50;1.40;;;;;;;18.07;86.81;97710.84;5031644;28;20627;-84
2023/07/30 06:34:47;;;;;;;2.53;1.90;;;;;;;18.29;87.48;97712.66;5037881;28;20497;-84
2023/07/30 06:37:14;;;;;;;1.37;1.27;;;;;;;18.27;86.15;97712.09;5042147;28;20541;-84
2023/07/30 06:39:42;;;;;;;1.30;1.20;;;;;;;18.48;86.39;97707.66;5039633;28;20491;-83
2023/07/30 06:42:11;;;;;;;1.80;1.70;;;;;;;18.93;85.82;97710.75;5032807;28;20486;-84
2023/07/30 06:44:40;;;;;;;1.97;1.60;;;;;;;18.90;85.35;97729.66;5032064;28;20519;-84
2023/07/30 06:47:06;;;;;;;1.70;1.60;;;;;;;19.24;83.68;97727.41;5031972;28;20448;-84
2023/07/30 06:49:35;;;;;;;1.80;1.70;;;;;;;19.39;83.37;97738.50;5029320;28;20853;-83
2023/07/30 06:52:02;;;;;;;1.80;1.67;;;;;;;19.70;81.66;97734.00;5028441;28;20480;-82
2023/07/30 06:54:30;;;;;;;2.87;1.57;;;;;;;20.00;79.40;97745.09;5029206;28;20461;-85
2023/07/30 06:56:57;;;;;;;1.40;1.30;;;;;;;19.78;78.63;97741.75;5031259;28;20492;-84
2023/07/30 06:59:24;;;;;;;1.97;1.70;;;;;;;19.59;79.46;97751.53;5027366;28;20528;-83
2023/07/30 07:01:50;;;;;;;1.50;1.40;;;;;;;19.48;81.38;97749.81;5026085;28;20785;-85
2023/07/30 07:04:17;;;;;;;2.63;1.30;;;;;;;19.74;79.97;97751.59;5027581;28;21544;-85
2023/07/30 07:06:45;;;;;;;1.83;1.60;;;;;;;19.61;80.29;97752.91;5028377;28;20456;-84
2023/07/30 07:09:12;;;;;;;1.50;1.40;;;;;;;19.53;81.06;97749.84;5026452;28;20448;-84
2023/07/30 07:11:39;;;;;;;1.70;1.60;;;;;;;19.71;81.28;97758.47;5025492;28;20476;-84
2023/07/30 07:14:06;;;;;;;1.80;1.70;;;;;;;19.82;80.87;97753.81;5027129;28;21041;-85
2023/07/30 07:16:33;;;;;;;1.70;1.60;;;;;;;20.00;80.26;97758.84;5026590;28;20560;-84
2023/07/30 07:18:59;;;;;;;2.07;1.80;;;;;;;19.91;79.79;97759.63;5026114;28;20499;-84
2023/07/30 07:21:27;;;;;;;3.20;2.30;;;;;;;19.76;81.19;97760.41;5024760;28;20492;-85
2023/07/30 07:23:55;;;;;;;2.00;1.90;;;;;;;19.80;81.70;97764.28;5027883;28;20502;-84
2023/07/30 07:26:22;;;;;;;2.13;2.00;;;;;;;19.83;81.96;97771.94;5027014;28;20458;-84
2023/07/30 07:28:49;;;;;;;2.17;2.07;;;;;;;19.94;81.78;97762.66;5025019;28;20494;-84
2023/07/30 07:31:16;;;;;;;2.67;2.40;;;;;;;19.73;82.46;97769.19;5026601;28;20551;-84
2023/07/30 07:33:45;;;;;;;3.10;2.20;;;;;;;19.58;82.76;97769.91;5026432;28;20463;-82
2023/07/30 07:36:14;;;;;;;3.40;2.40;;;;;;;19.50;83.13;97781.34;5009265;28;20465;-83
2023/07/30 07:38:40;;;;;;;2.30;2.10;;;;;;;19.14;84.62;97783.06;5019752;28;20468;-83
2023/07/30 07:41:15;;;;;;;2.40;2.20;;;;;;;18.95;85.77;97787.31;5024354;28;20507;-82
2023/07/30 07:43:41;;;;;;;2.60;2.20;;;;;;;18.86;86.21;97788.88;5020988;28;20574;-82
2023/07/30 07:46:13;;;;;;;2.50;2.30;;;;;;;18.90;87.03;97792.75;5025812;28;20867;-82
2023/07/30 07:48:39;;;;;;;2.00;1.90;;;;;;;18.26;85.83;97806.34;5028352;28;20445;-82
2023/07/30 07:51:06;;;;;;;2.50;2.30;;;;;;;17.71;87.98;97810.06;5021846;28;20911;-83
2023/07/30 07:53:33;;;;;;;3.33;3.03;;;;;;;17.66;88.89;97807.25;5024043;28;20452;-82
2023/07/30 07:56:00;;;;;;;2.77;2.57;;;;;;;17.71;89.95;97810.91;5026510;28;20480;-83
2023/07/30 07:58:28;;;;;;;2.70;2.50;;;;;;;17.84;89.32;97814.34;5023074;28;20479;-82
2023/07/30 08:00:56;;;;;;;2.43;2.23;;;;;;;17.94;89.68;97809.81;5022891;28;20512;-75
2023/07/30 08:03:23;;;;;;;2.43;2.23;;;;;;;18.06;89.40;97801.47;5023927;28;20976;-82
2023/07/30 08:05:50;;;;;;;2.47;2.27;;;;;;;18.15;89.22;97797.19;5028013;28;20540;-82
2023/07/30 08:08:18;;;;;;;2.80;2.47;;;;;;;18.41;88.41;97798.31;5026829;28;20456;-82
2023/07/30 08:10:47;;;;;;;3.10;2.90;;;;;;;18.41;88.09;97803.78;5021870;28;20496;-82
2023/07/30 08:13:14;;;;;;;2.50;2.40;;;;;;;18.74;87.96;97802.75;5026775;28;20454;-82
2023/07/30 08:15:42;;;;;;;2.97;2.50;;;;;;;18.88;87.06;97803.16;5025138;28;20899;-81
2023/07/30 08:18:09;;;;;;;2.27;2.07;;;;;;;18.77;85.89;97792.09;5017749;28;20591;-81
2023/07/30 08:20:36;;;;;;;2.40;2.17;;;;;;;18.62;85.87;97802.09;5025053;28;20459;-81
2023/07/30 08:23:03;;;;;;;2.83;2.10;;;;;;;18.66;85.41;97804.06;5026577;28;20495;-81
2023/07/30 08:25:30;;;;;;;2.23;2.10;;;;;;;18.98;84.36;97804.06;5024758;28;20496;-80
2023/07/30 08:27:56;;;;;;;1.90;1.80;;;;;;;19.49;82.09;97803.63;5022869;28;20452;-79
2023/07/30 08:30:23;;;;;;;3.03;1.90;;;;;;;19.81;80.04;97800.81;5017056;28;20471;-81
2023/07/30 08:32:51;;;;;;;1.70;1.60;;;;;;;19.85;78.97;97797.22;5014892;28;20548;-80
2023/07/30 08:35:18;;;;;;;2.03;1.93;;;;;;;19.99;77.80;97798.41;5019736;28;20462;-80
2023/07/30 08:37:45;;;;;;;2.13;1.93;;;;;;;20.17;77.46;97790.75;5015232;28;20752;-81
2023/07/30 08:40:12;;;;;;;2.17;1.97;;;;;;;20.76;75.10;97797.53;5020576;28;21026;-81
2023/07/30 08:42:39;;;;;;;1.87;1.77;;;;;;;20.27;75.52;97791.63;5011570;28;20482;-79
2023/07/30 08:45:07;;;;;;;2.30;2.10;;;;;;;19.74;78.28;97782.63;5020721;28;20498;-80
2023/07/30 08:47:34;;;;;;;2.00;1.90;;;;;;;20.11;77.36;97781.69;5014578;28;20500;-79
2023/07/30 08:50:03;;;;;;;3.10;1.80;;;;;;;20.37;76.67;97791.69;5023505;28;20548;-80
2023/07/30 08:52:30;;;;;;;2.37;2.17;;;;;;;20.33;76.31;97789.72;5025358;28;20487;-80
2023/07/30 08:54:58;;;;;;;1.90;1.80;;;;;;;20.29;76.65;97786.69;5021591;28;20973;-79
2023/07/30 08:57:25;;;;;;;2.10;1.90;;;;;;;20.98;74.63;97793.69;5021851;28;20463;-81
2023/07/30 08:59:55;;;;;;;2.23;2.07;;;;;;;20.84;73.98;97800.81;5022554;28;20455;-81
2023/07/30 09:02:25;;;;;;;2.33;2.23;;;;;;;20.83;74.08;97807.41;5026399;28;20472;-81
2023/07/30 09:04:54;;;;;;;2.30;1.87;;;;;;;20.44;74.44;97807.94;5024942;28;20523;-80
2023/07/30 09:07:22;;;;;;;2.30;2.13;;;;;;;20.73;74.59;97811.00;5026457;28;20458;-81
2023/07/30 09:09:49;;;;;;;2.00;1.90;;;;;;;21.12;72.18;97803.03;5022709;28;20456;-79
2023/07/30 09:12:17;;;;;;;1.90;1.80;;;;;;;21.27;69.03;97808.56;5019869;28;20500;-81
2023/07/30 09:14:44;;;;;;;1.77;1.67;;;;;;;21.01;70.83;97809.66;5021122;28;20870;-81
2023/07/30 09:17:11;;;;;;;1.80;1.70;;;;;;;21.41;70.08;97803.31;5026580;28;20936;-80
2023/07/30 09:19:38;;;;;;;2.20;2.10;;;;;;;21.06;69.92;97813.22;5023781;28;20488;-72
2023/07/30 09:22:06;;;;;;;1.90;1.80;;;;;;;21.04;70.41;97806.34;5032366;28;20494;-72
2023/07/30 09:24:34;;;;;;;2.40;2.20;;;;;;;20.87;68.32;97814.84;5028385;28;21073;-73
2023/07/30 09:27:03;;;;;;;2.10;1.90;;;;;;;20.40;68.48;97820.56;5024668;28;20456;-82
2023/07/30 09:29:30;;;;;;;1.90;1.80;;;;;;;20.29;69.53;97819.66;5018333;28;20456;-81
2023/07/30 09:31:58;;;;;;;2.50;2.30;;;;;;;20.35;70.07;97823.25;5027014;28;20476;-81
2023/07/30 09:34:26;;;;;;;2.73;2.30;;;;;;;20.43;70.63;97820.84;5026710;28;20468;-80
2023/07/30 09:36:54;;;;;;;3.50;1.83;;;;;;;20.86;68.22;97823.38;5026717;28;20463;-81
2023/07/30 09:39:22;;;;;;;2.50;2.30;;;;;;;21.91;66.45;97823.59;5023802;28;20551;-83
2023/07/30 09:41:52;;;;;;;2.20;2.10;;;;;;;22.21;63.17;97833.69;5028768;28;20479;-82
2023/07/30 09:44:19;;;;;;;4.03;2.00;;;;;;;21.38;66.88;97823.16;5025952;28;20484;-83
2023/07/30 09:46:48;;;;;;;2.23;2.03;;;;;;;21.54;65.38;97838.53;5025488;28;20488;-82
2023/07/30 09:49:15;;;;;;;2.53;2.30;;;;;;;22.15;64.00;97830.13;5028809;28;21255;-83
2023/07/30 09:51:42;;;;;;;2.50;2.30;;;;;;;21.91;62.00;97843.69;5028131;28;20492;-83
2023/07/30 09:54:10;;;;;;;2.70;1.77;;;;;;;21.88;60.16;97838.75;5025919;28;20566;-81
2023/07/30 09:56:37;;;;;;;2.30;2.10;;;;;;;21.09;61.35;97844.88;5025616;28;20464;-85
2023/07/30 09:59:06;;;;;;;2.47;2.27;;;;;;;20.57;65.14;97836.81;5011517;28;20466;-80
2023/07/30 10:01:34;;;;;;;2.30;2.10;;;;;;;20.51;64.89;97840.66;5025080;28;21006;-80
2023/07/30 10:04:06;;;;;;;2.43;2.00;;;;;;;20.57;64.36;97847.81;5024980;28;20460;-81
2023/07/30 10:06:36;;;;;;;2.30;2.10;;;;;;;21.09;63.09;97844.88;5024501;28;20474;-84
2023/07/30 10:09:03;;;;;;;2.40;2.20;;;;;;;21.72;60.29;97853.69;5025148;28;20550;-82
2023/07/30 10:11:30;;;;;;;3.03;2.30;;;;;;;21.80;59.93;97850.34;5025151;28;20476;-85
2023/07/30 10:13:57;;;;;;;2.73;2.30;;;;;;;21.55;57.38;97839.38;5024979;28;20456;-83
2023/07/30 10:16:27;;;;;;;2.50;2.30;;;;;;;22.13;56.29;97857.97;5023013;28;20797;-85
2023/07/30 10:18:57;;;;;;;2.33;2.20;;;;;;;22.34;55.38;97846.88;5023343;28;20452;-86
2023/07/30 10:21:26;;;;;;;2.10;1.90;;;;;;;22.46;55.46;97841.84;5025242;28;20476;-85
2023/07/30 10:23:59;;;;;;;2.60;2.40;;;;;;;21.98;57.66;97837.91;5027999;28;20456;-85
2023/07/30 10:26:30;;;;;;;2.70;2.50;;;;;;;;;;5023644;28;20496;-85
2023/07/30 10:29:16;;;;;;;3.80;2.27;;;;;;;21.57;55.00;97838.00;5026596;28;20460;-82
2023/07/30 10:31:50;;;;;;;1.90;1.80;;;;;;;21.93;56.09;97844.25;5019705;28;20563;-83
2023/07/30 10:34:18;;;;;;;2.50;2.30;;;;;;;22.23;54.64;97854.38;5025540;28;20537;-86
2023/07/30 10:36:48;;;;;;;2.30;1.93;;;;;;;22.28;54.71;97870.06;5028680;28;20484;-85
2023/07/30 10:39:16;;;;;;;2.40;1.93;;;;;;;22.02;56.74;97845.34;5027141;28;20460;-85
2023/07/30 10:41:46;;;;;;;2.53;2.33;;;;;;;21.83;57.30;97855.28;5028044;28;20480;-85
2023/07/30 10:44:23;;;;;;;2.80;2.33;;;;;;;21.44;58.42;97858.66;5027696;28;20467;-85
2023/07/30 10:46:51;;;;;;;3.90;3.60;;;;;;;22.21;55.30;97853.00;5024954;28;20452;-85
2023/07/30 10:49:18;;;;;;;2.50;2.30;;;;;;;22.34;53.83;97857.91;5023866;28;20500;-84
2023/07/30 10:51:46;;;;;;;2.47;2.10;;;;;;;22.57;53.37;97848.97;5028390;28;21043;-83
2023/07/30 10:54:13;;;;;;;3.03;2.37;;;;;;;23.47;52.84;97843.09;5027836;28;20507;-84
2023/07/30 10:56:41;;;;;;;3.63;2.60;;;;;;;24.24;50.63;97846.72;5027066;28;21093;-85
2023/07/30 10:59:08;;;;;;;2.50;2.30;;;;;;;24.23;49.80;97849.78;5023918;28;20474;-84
2023/07/30 11:01:41;;;;;;;2.50;2.30;;;;;;;24.02;51.19;97846.44;5020120;28;20848;-85
2023/07/30 11:04:10;;;;;;;3.33;2.13;;;;;;;23.87;50.22;97855.72;5026322;28;20539;-85
2023/07/30 11:06:37;;;;;;;2.30;2.10;;;;;;;24.06;50.18;97859.38;5021490;28;20493;-83
2023/07/30 11:09:04;;;;;;;3.30;2.50;;;;;;;23.25;53.27;97870.34;5023882;28;20512;-84
2023/07/30 11:11:31;;;;;;;2.63;2.40;;;;;;;23.58;51.93;97865.97;5021622;28;20606;-83
2023/07/30 11:13:59;;;;;;;2.77;2.57;;;;;;;23.19;54.07;97877.03;5027463;28;20458;-86
2023/07/30 11:16:26;;;;;;;3.57;2.40;;;;;;;22.98;54.55;97873.59;5026068;28;20460;-85
2023/07/30 11:18:54;;;;;;;2.83;2.63;;;;;;;22.33;56.22;97892.13;5029349;28;20465;-85
2023/07/30 11:21:22;;;;;;;2.80;2.50;;;;;;;21.25;59.15;97904.38;5031936;28;20483;-84
2023/07/30 11:23:51;;;;;;;2.27;2.00;;;;;;;20.42;58.97;97898.09;5032647;28;20535;-83
2023/07/30 11:26:20;;;;;;;5.73;1.97;;;;;;;20.11;60.17;97911.69;5030120;28;20561;-85
2023/07/30 11:28:55;;;;;;;2.70;2.43;;;;;;;19.61;62.52;97914.09;5029273;28;20460;-85
2023/07/30 11:31:29;;;;;;;2.33;2.13;;;;;;;19.24;63.57;97914.84;5026195;28;20522;-84
2023/07/30 11:33:56;;;;;;;2.30;2.20;;;;;;;19.29;64.92;97911.31;5027992;28;21232;-84
2023/07/30 11:36:25;;;;;;;2.50;2.30;;;;;;;19.64;63.80;97905.31;5026946;28;20460;-84